sensor_id;sensor_type;location;lat;lon;timestamp;P1;durP1;ratioP1;P2;durP2;ratioP2
8177;SDS011;4130;48.740;9.132;2023-06-22T00:00:39;3.88;;;3.58;;
8177;SDS011;4130;48.740;9.132;2023-06-22T00:03:07;4.05;;;3.65;;
8177;SDS011;4130;48.740;9.132;2023-06-22T00:05:34;4.55;;;3.72;;
8177;SDS011;4130;48.740;9.132;2023-06-22T00:08:02;4.38;;;3.78;;
8177;SDS011;4130;48.740;9.132;2023-06-22T00:10:29;4.07;;;3.67;;
8177;SDS011;4130;48.740;9.132;2023-06-22T00:12:58;4.85;;;3.92;;
8177;SDS011;4130;48.740;9.132;2023-06-22T00:15:24;5.10;;;4.55;;
8177;SDS011;4130;48.740;9.132;2023-06-22T00:17:51;4.70;;;4.20;;
8177;SDS011;4130;48.740;9.132;2023-06-22T00:20:18;4.75;;;3.88;;
8177;SDS011;4130;48.740;9.132;2023-06-22T00:22:44;4.20;;;3.45;;
8177;SDS011;4130;48.740;9.132;2023-06-22T00:25:12;4.82;;;4.10;;
8177;SDS011;4130;48.740;9.132;2023-06-22T00:27:39;4.65;;;4.13;;
8177;SDS011;4130;48.740;9.132;2023-06-22T00:30:08;3.90;;;3.50;;
8177;SDS011;4130;48.740;9.132;2023-06-22T00:32:35;4.05;;;3.75;;
8177;SDS011;4130;48.740;9.132;2023-06-22T00:35:02;4.53;;;3.92;;
8177;SDS011;4130;48.740;9.132;2023-06-22T00:37:30;4.22;;;3.83;;
8177;SDS011;4130;48.740;9.132;2023-06-22T00:39:56;3.70;;;3.40;;
8177;SDS011;4130;48.740;9.132;2023-06-22T00:42:23;5.13;;;3.70;;
8177;SDS011;4130;48.740;9.132;2023-06-22T00:44:51;4.40;;;3.78;;
8177;SDS011;4130;48.740;9.132;2023-06-22T00:47:21;3.95;;;3.55;;
8177;SDS011;4130;48.740;9.132;2023-06-22T00:49:48;5.75;;;3.90;;
8177;SDS011;4130;48.740;9.132;2023-06-22T00:52:17;4.90;;;4.10;;
8177;SDS011;4130;48.740;9.132;2023-06-22T00:54:46;7.43;;;4.72;;
8177;SDS011;4130;48.740;9.132;2023-06-22T00:57:14;5.57;;;4.55;;
8177;SDS011;4130;48.740;9.132;2023-06-22T00:59:41;4.35;;;3.92;;
8177;SDS011;4130;48.740;9.132;2023-06-22T01:02:09;4.18;;;3.78;;
8177;SDS011;4130;48.740;9.132;2023-06-22T01:04:37;3.97;;;3.60;;
8177;SDS011;4130;48.740;9.132;2023-06-22T01:07:07;4.15;;;3.78;;
8177;SDS011;4130;48.740;9.132;2023-06-22T01:09:40;3.53;;;3.22;;
8177;SDS011;4130;48.740;9.132;2023-06-22T01:12:12;3.72;;;3.42;;
8177;SDS011;4130;48.740;9.132;2023-06-22T01:14:42;4.03;;;3.70;;
8177;SDS011;4130;48.740;9.132;2023-06-22T01:17:17;4.00;;;3.60;;
8177;SDS011;4130;48.740;9.132;2023-06-22T01:19:48;3.55;;;3.30;;
8177;SDS011;4130;48.740;9.132;2023-06-22T01:22:21;3.88;;;3.47;;
8177;SDS011;4130;48.740;9.132;2023-06-22T01:24:51;3.75;;;3.42;;
8177;SDS011;4130;48.740;9.132;2023-06-22T01:27:32;3.85;;;3.55;;
8177;SDS011;4130;48.740;9.132;2023-06-22T01:30:08;3.83;;;3.42;;
8177;SDS011;4130;48.740;9.132;2023-06-22T01:32:37;4.53;;;3.80;;
8177;SDS011;4130;48.740;9.132;2023-06-22T01:35:05;5.47;;;3.65;;
8177;SDS011;4130;48.740;9.132;2023-06-22T01:37:34;5.05;;;3.88;;
8177;SDS011;4130;48.740;9.132;2023-06-22T01:40:04;4.18;;;3.47;;
8177;SDS011;4130;48.740;9.132;2023-06-22T01:42:33;4.38;;;3.85;;
8177;SDS011;4130;48.740;9.132;2023-06-22T01:45:01;5.07;;;3.70;;
8177;SDS011;4130;48.740;9.132;2023-06-22T01:47:30;4.63;;;3.67;;
8177;SDS011;4130;48.740;9.132;2023-06-22T01:49:57;5.00;;;3.80;;
8177;SDS011;4130;48.740;9.132;2023-06-22T01:52:24;3.65;;;3.35;;
8177;SDS011;4130;48.740;9.132;2023-06-22T01:54:51;3.78;;;3.33;;
8177;SDS011;4130;48.740;9.132;2023-06-22T01:57:18;3.58;;;3.28;;
8177;SDS011;4130;48.740;9.132;2023-06-22T01:59:47;3.60;;;3.30;;
8177;SDS011;4130;48.740;9.132;2023-06-22T02:02:19;3.90;;;3.58;;
8177;SDS011;4130;48.740;9.132;2023-06-22T02:04:54;6.38;;;3.95;;
8177;SDS011;4130;48.740;9.132;2023-06-22T02:07:26;4.70;;;3.83;;
8177;SDS011;4130;48.740;9.132;2023-06-22T02:09:57;4.05;;;3.42;;
8177;SDS011;4130;48.740;9.132;2023-06-22T02:12:25;3.40;;;3.10;;
8177;SDS011;4130;48.740;9.132;2023-06-22T02:14:53;4.95;;;3.30;;
8177;SDS011;4130;48.740;9.132;2023-06-22T02:17:20;3.70;;;3.40;;
8177;SDS011;4130;48.740;9.132;2023-06-22T02:19:47;3.80;;;3.42;;
8177;SDS011;4130;48.740;9.132;2023-06-22T02:22:15;3.88;;;3.58;;
8177;SDS011;4130;48.740;9.132;2023-06-22T02:24:42;3.75;;;3.45;;
8177;SDS011;4130;48.740;9.132;2023-06-22T02:27:09;4.15;;;3.75;;
8177;SDS011;4130;48.740;9.132;2023-06-22T02:29:36;5.15;;;3.53;;
8177;SDS011;4130;48.740;9.132;2023-06-22T02:32:03;3.80;;;3.40;;
8177;SDS011;4130;48.740;9.132;2023-06-22T02:34:30;3.95;;;3.55;;
8177;SDS011;4130;48.740;9.132;2023-06-22T02:36:58;4.53;;;3.60;;
8177;SDS011;4130;48.740;9.132;2023-06-22T02:39:27;3.70;;;3.40;;
8177;SDS011;4130;48.740;9.132;2023-06-22T02:41:54;3.72;;;3.42;;
8177;SDS011;4130;48.740;9.132;2023-06-22T02:44:21;4.63;;;3.72;;
8177;SDS011;4130;48.740;9.132;2023-06-22T02:46:48;4.35;;;3.63;;
8177;SDS011;4130;48.740;9.132;2023-06-22T02:49:15;3.72;;;3.42;;
8177;SDS011;4130;48.740;9.132;2023-06-22T02:51:44;3.85;;;3.55;;
8177;SDS011;4130;48.740;9.132;2023-06-22T02:54:11;4.72;;;3.90;;
8177;SDS011;4130;48.740;9.132;2023-06-22T02:56:39;4.55;;;3.83;;
8177;SDS011;4130;48.740;9.132;2023-06-22T02:59:08;3.50;;;3.20;;
8177;SDS011;4130;48.740;9.132;2023-06-22T03:01:36;3.95;;;3.65;;
8177;SDS011;4130;48.740;9.132;2023-06-22T03:04:04;4.75;;;3.47;;
8177;SDS011;4130;48.740;9.132;2023-06-22T03:06:31;3.60;;;3.30;;
8177;SDS011;4130;48.740;9.132;2023-06-22T03:08:58;4.40;;;3.28;;
8177;SDS011;4130;48.740;9.132;2023-06-22T03:11:28;6.00;;;4.40;;
8177;SDS011;4130;48.740;9.132;2023-06-22T03:13:57;4.72;;;3.60;;
8177;SDS011;4130;48.740;9.132;2023-06-22T03:16:24;4.30;;;3.90;;
8177;SDS011;4130;48.740;9.132;2023-06-22T03:18:50;5.60;;;3.45;;
8177;SDS011;4130;48.740;9.132;2023-06-22T03:21:18;4.65;;;3.17;;
8177;SDS011;4130;48.740;9.132;2023-06-22T03:23:45;4.28;;;3.88;;
8177;SDS011;4130;48.740;9.132;2023-06-22T03:26:12;4.28;;;3.88;;
8177;SDS011;4130;48.740;9.132;2023-06-22T03:28:38;4.05;;;3.60;;
8177;SDS011;4130;48.740;9.132;2023-06-22T03:31:06;4.13;;;3.72;;
8177;SDS011;4130;48.740;9.132;2023-06-22T03:33:34;3.97;;;3.58;;
8177;SDS011;4130;48.740;9.132;2023-06-22T03:36:00;5.32;;;3.72;;
8177;SDS011;4130;48.740;9.132;2023-06-22T03:38:27;3.83;;;3.42;;
8177;SDS011;4130;48.740;9.132;2023-06-22T03:40:54;3.90;;;3.60;;
8177;SDS011;4130;48.740;9.132;2023-06-22T03:43:21;4.13;;;3.72;;
8177;SDS011;4130;48.740;9.132;2023-06-22T03:45:47;3.72;;;3.25;;
8177;SDS011;4130;48.740;9.132;2023-06-22T03:48:15;3.78;;;3.47;;
8177;SDS011;4130;48.740;9.132;2023-06-22T03:50:42;4.82;;;3.67;;
8177;SDS011;4130;48.740;9.132;2023-06-22T03:53:09;4.03;;;3.63;;
8177;SDS011;4130;48.740;9.132;2023-06-22T03:55:36;4.22;;;3.83;;
8177;SDS011;4130;48.740;9.132;2023-06-22T03:58:03;3.97;;;3.67;;
8177;SDS011;4130;48.740;9.132;2023-06-22T04:00:30;4.20;;;3.80;;
8177;SDS011;4130;48.740;9.132;2023-06-22T04:02:57;3.15;;;2.85;;
8177;SDS011;4130;48.740;9.132;2023-06-22T04:05:25;3.72;;;3.42;;
8177;SDS011;4130;48.740;9.132;2023-06-22T04:07:52;3.80;;;3.50;;
8177;SDS011;4130;48.740;9.132;2023-06-22T04:10:19;6.40;;;4.30;;
8177;SDS011;4130;48.740;9.132;2023-06-22T04:12:45;4.50;;;3.47;;
8177;SDS011;4130;48.740;9.132;2023-06-22T04:15:13;4.50;;;4.10;;
8177;SDS011;4130;48.740;9.132;2023-06-22T04:17:40;6.72;;;4.43;;
8177;SDS011;4130;48.740;9.132;2023-06-22T04:20:07;7.07;;;4.80;;
8177;SDS011;4130;48.740;9.132;2023-06-22T04:22:35;3.92;;;3.60;;
8177;SDS011;4130;48.740;9.132;2023-06-22T04:25:02;4.80;;;3.88;;
8177;SDS011;4130;48.740;9.132;2023-06-22T04:27:30;4.22;;;3.83;;
8177;SDS011;4130;48.740;9.132;2023-06-22T04:29:57;4.75;;;4.03;;
8177;SDS011;4130;48.740;9.132;2023-06-22T04:32:25;5.03;;;3.90;;
8177;SDS011;4130;48.740;9.132;2023-06-22T04:34:52;4.57;;;4.10;;
8177;SDS011;4130;48.740;9.132;2023-06-22T04:37:18;4.25;;;3.85;;
8177;SDS011;4130;48.740;9.132;2023-06-22T04:39:49;4.53;;;4.13;;
8177;SDS011;4130;48.740;9.132;2023-06-22T04:42:16;4.15;;;3.80;;
8177;SDS011;4130;48.740;9.132;2023-06-22T04:44:43;4.72;;;4.28;;
8177;SDS011;4130;48.740;9.132;2023-06-22T04:47:10;4.47;;;4.07;;
8177;SDS011;4130;48.740;9.132;2023-06-22T04:49:37;4.75;;;4.22;;
8177;SDS011;4130;48.740;9.132;2023-06-22T04:52:06;4.05;;;3.65;;
8177;SDS011;4130;48.740;9.132;2023-06-22T04:54:34;5.53;;;4.03;;
8177;SDS011;4130;48.740;9.132;2023-06-22T04:57:03;4.18;;;3.80;;
8177;SDS011;4130;48.740;9.132;2023-06-22T04:59:34;4.75;;;3.97;;
8177;SDS011;4130;48.740;9.132;2023-06-22T05:02:04;5.75;;;4.07;;
8177;SDS011;4130;48.740;9.132;2023-06-22T05:04:31;4.93;;;4.30;;
8177;SDS011;4130;48.740;9.132;2023-06-22T05:07:00;4.05;;;3.75;;
8177;SDS011;4130;48.740;9.132;2023-06-22T05:09:28;4.90;;;4.07;;
8177;SDS011;4130;48.740;9.132;2023-06-22T05:11:55;5.35;;;4.32;;
8177;SDS011;4130;48.740;9.132;2023-06-22T05:14:23;4.88;;;4.30;;
8177;SDS011;4130;48.740;9.132;2023-06-22T05:16:50;10.90;;;4.50;;
8177;SDS011;4130;48.740;9.132;2023-06-22T05:19:17;4.57;;;4.18;;
8177;SDS011;4130;48.740;9.132;2023-06-22T05:21:44;6.85;;;4.22;;
8177;SDS011;4130;48.740;9.132;2023-06-22T05:24:11;5.32;;;3.97;;
8177;SDS011;4130;48.740;9.132;2023-06-22T05:26:38;6.57;;;4.63;;
8177;SDS011;4130;48.740;9.132;2023-06-22T05:29:04;5.13;;;4.63;;
8177;SDS011;4130;48.740;9.132;2023-06-22T05:31:33;7.85;;;5.35;;
8177;SDS011;4130;48.740;9.132;2023-06-22T05:33:59;5.60;;;4.72;;
8177;SDS011;4130;48.740;9.132;2023-06-22T05:36:26;4.95;;;4.50;;
8177;SDS011;4130;48.740;9.132;2023-06-22T05:38:53;5.28;;;4.65;;
8177;SDS011;4130;48.740;9.132;2023-06-22T05:41:22;6.10;;;4.55;;
8177;SDS011;4130;48.740;9.132;2023-06-22T05:43:49;6.10;;;4.35;;
8177;SDS011;4130;48.740;9.132;2023-06-22T05:46:16;4.75;;;4.15;;
8177;SDS011;4130;48.740;9.132;2023-06-22T05:48:44;5.03;;;4.53;;
8177;SDS011;4130;48.740;9.132;2023-06-22T05:51:11;7.53;;;4.60;;
8177;SDS011;4130;48.740;9.132;2023-06-22T05:53:38;12.55;;;4.75;;
8177;SDS011;4130;48.740;9.132;2023-06-22T05:56:05;5.40;;;4.65;;
8177;SDS011;4130;48.740;9.132;2023-06-22T05:58:31;5.10;;;4.05;;
8177;SDS011;4130;48.740;9.132;2023-06-22T06:00:58;4.45;;;4.05;;
8177;SDS011;4130;48.740;9.132;2023-06-22T06:03:25;4.32;;;3.92;;
8177;SDS011;4130;48.740;9.132;2023-06-22T06:05:55;6.57;;;4.20;;
8177;SDS011;4130;48.740;9.132;2023-06-22T06:08:22;4.53;;;3.95;;
8177;SDS011;4130;48.740;9.132;2023-06-22T06:10:49;5.10;;;4.10;;
8177;SDS011;4130;48.740;9.132;2023-06-22T06:13:17;4.85;;;4.05;;
8177;SDS011;4130;48.740;9.132;2023-06-22T06:15:44;4.82;;;4.15;;
8177;SDS011;4130;48.740;9.132;2023-06-22T06:18:11;4.85;;;3.80;;
8177;SDS011;4130;48.740;9.132;2023-06-22T06:20:38;5.88;;;4.70;;
8177;SDS011;4130;48.740;9.132;2023-06-22T06:23:06;5.05;;;4.25;;
8177;SDS011;4130;48.740;9.132;2023-06-22T06:25:32;5.85;;;4.13;;
8177;SDS011;4130;48.740;9.132;2023-06-22T06:27:59;6.13;;;4.13;;
8177;SDS011;4130;48.740;9.132;2023-06-22T06:30:26;5.78;;;4.15;;
8177;SDS011;4130;48.740;9.132;2023-06-22T06:32:53;5.15;;;4.10;;
8177;SDS011;4130;48.740;9.132;2023-06-22T06:35:20;5.00;;;4.35;;
8177;SDS011;4130;48.740;9.132;2023-06-22T06:37:48;4.75;;;3.85;;
8177;SDS011;4130;48.740;9.132;2023-06-22T06:40:18;6.38;;;3.97;;
8177;SDS011;4130;48.740;9.132;2023-06-22T06:42:45;5.05;;;4.28;;
8177;SDS011;4130;48.740;9.132;2023-06-22T06:45:15;4.75;;;4.00;;
8177;SDS011;4130;48.740;9.132;2023-06-22T06:47:44;7.72;;;4.07;;
8177;SDS011;4130;48.740;9.132;2023-06-22T06:50:11;4.95;;;3.78;;
8177;SDS011;4130;48.740;9.132;2023-06-22T06:52:38;4.10;;;3.65;;
8177;SDS011;4130;48.740;9.132;2023-06-22T06:55:05;4.35;;;3.55;;
8177;SDS011;4130;48.740;9.132;2023-06-22T06:57:37;4.47;;;3.70;;
8177;SDS011;4130;48.740;9.132;2023-06-22T07:00:04;4.22;;;3.60;;
8177;SDS011;4130;48.740;9.132;2023-06-22T07:02:37;4.45;;;3.60;;
8177;SDS011;4130;48.740;9.132;2023-06-22T07:05:04;4.05;;;3.30;;
8177;SDS011;4130;48.740;9.132;2023-06-22T07:07:31;8.50;;;4.10;;
8177;SDS011;4130;48.740;9.132;2023-06-22T07:09:58;3.72;;;3.30;;
8177;SDS011;4130;48.740;9.132;2023-06-22T07:12:25;4.93;;;3.88;;
8177;SDS011;4130;48.740;9.132;2023-06-22T07:14:53;4.80;;;3.72;;
8177;SDS011;4130;48.740;9.132;2023-06-22T07:17:20;4.25;;;3.13;;
8177;SDS011;4130;48.740;9.132;2023-06-22T07:19:46;6.85;;;3.55;;
8177;SDS011;4130;48.740;9.132;2023-06-22T07:22:13;4.38;;;3.45;;
8177;SDS011;4130;48.740;9.132;2023-06-22T07:24:40;3.60;;;3.30;;
8177;SDS011;4130;48.740;9.132;2023-06-22T07:27:06;3.72;;;3.38;;
8177;SDS011;4130;48.740;9.132;2023-06-22T07:29:36;4.22;;;3.53;;
8177;SDS011;4130;48.740;9.132;2023-06-22T07:32:06;4.68;;;3.08;;
8177;SDS011;4130;48.740;9.132;2023-06-22T07:34:33;3.35;;;2.50;;
8177;SDS011;4130;48.740;9.132;2023-06-22T07:37:00;2.90;;;2.70;;
8177;SDS011;4130;48.740;9.132;2023-06-22T07:39:27;4.10;;;3.08;;
8177;SDS011;4130;48.740;9.132;2023-06-22T07:41:54;4.60;;;3.00;;
8177;SDS011;4130;48.740;9.132;2023-06-22T07:44:20;3.75;;;2.90;;
8177;SDS011;4130;48.740;9.132;2023-06-22T07:46:47;3.25;;;2.72;;
8177;SDS011;4130;48.740;9.132;2023-06-22T07:49:16;3.63;;;2.85;;
8177;SDS011;4130;48.740;9.132;2023-06-22T07:51:43;2.78;;;2.50;;
8177;SDS011;4130;48.740;9.132;2023-06-22T07:54:10;3.15;;;2.45;;
8177;SDS011;4130;48.740;9.132;2023-06-22T07:56:37;3.88;;;2.63;;
8177;SDS011;4130;48.740;9.132;2023-06-22T07:59:03;2.88;;;2.58;;
8177;SDS011;4130;48.740;9.132;2023-06-22T08:01:30;6.18;;;2.65;;
8177;SDS011;4130;48.740;9.132;2023-06-22T08:03:57;3.30;;;2.63;;
8177;SDS011;4130;48.740;9.132;2023-06-22T08:06:25;3.85;;;2.67;;
8177;SDS011;4130;48.740;9.132;2023-06-22T08:08:51;3.72;;;3.00;;
8177;SDS011;4130;48.740;9.132;2023-06-22T08:11:19;4.28;;;2.90;;
8177;SDS011;4130;48.740;9.132;2023-06-22T08:13:47;5.88;;;3.10;;
8177;SDS011;4130;48.740;9.132;2023-06-22T08:16:14;2.95;;;2.65;;
8177;SDS011;4130;48.740;9.132;2023-06-22T08:18:40;2.75;;;2.53;;
8177;SDS011;4130;48.740;9.132;2023-06-22T08:21:07;3.25;;;2.70;;
8177;SDS011;4130;48.740;9.132;2023-06-22T08:23:35;2.53;;;2.33;;
8177;SDS011;4130;48.740;9.132;2023-06-22T08:26:02;3.70;;;2.70;;
8177;SDS011;4130;48.740;9.132;2023-06-22T08:28:29;3.53;;;2.75;;
8177;SDS011;4130;48.740;9.132;2023-06-22T08:30:56;4.30;;;3.08;;
8177;SDS011;4130;48.740;9.132;2023-06-22T08:33:23;3.88;;;2.60;;
8177;SDS011;4130;48.740;9.132;2023-06-22T08:35:53;5.00;;;3.42;;
8177;SDS011;4130;48.740;9.132;2023-06-22T08:38:20;6.30;;;3.10;;
8177;SDS011;4130;48.740;9.132;2023-06-22T08:40:48;4.53;;;2.83;;
8177;SDS011;4130;48.740;9.132;2023-06-22T08:43:15;3.40;;;2.70;;
8177;SDS011;4130;48.740;9.132;2023-06-22T08:45:42;5.20;;;3.58;;
8177;SDS011;4130;48.740;9.132;2023-06-22T08:48:09;3.03;;;2.65;;
8177;SDS011;4130;48.740;9.132;2023-06-22T08:50:35;4.22;;;2.95;;
8177;SDS011;4130;48.740;9.132;2023-06-22T08:53:02;3.22;;;2.72;;
8177;SDS011;4130;48.740;9.132;2023-06-22T08:55:29;3.33;;;2.85;;
8177;SDS011;4130;48.740;9.132;2023-06-22T08:57:57;3.47;;;3.03;;
8177;SDS011;4130;48.740;9.132;2023-06-22T09:00:24;4.78;;;3.03;;
8177;SDS011;4130;48.740;9.132;2023-06-22T09:02:51;3.97;;;2.92;;
8177;SDS011;4130;48.740;9.132;2023-06-22T09:05:17;7.10;;;3.80;;
8177;SDS011;4130;48.740;9.132;2023-06-22T09:07:46;4.57;;;2.92;;
8177;SDS011;4130;48.740;9.132;2023-06-22T09:10:13;3.30;;;2.97;;
8177;SDS011;4130;48.740;9.132;2023-06-22T09:12:40;4.43;;;3.45;;
8177;SDS011;4130;48.740;9.132;2023-06-22T09:15:09;7.60;;;3.45;;
8177;SDS011;4130;48.740;9.132;2023-06-22T09:17:36;4.93;;;3.10;;
8177;SDS011;4130;48.740;9.132;2023-06-22T09:20:03;5.63;;;3.08;;
8177;SDS011;4130;48.740;9.132;2023-06-22T09:22:30;4.28;;;2.90;;
8177;SDS011;4130;48.740;9.132;2023-06-22T09:24:57;7.03;;;3.13;;
8177;SDS011;4130;48.740;9.132;2023-06-22T09:27:25;5.47;;;3.15;;
8177;SDS011;4130;48.740;9.132;2023-06-22T09:29:52;4.38;;;2.92;;
8177;SDS011;4130;48.740;9.132;2023-06-22T09:32:20;5.55;;;3.15;;
8177;SDS011;4130;48.740;9.132;2023-06-22T09:34:47;7.03;;;3.20;;
8177;SDS011;4130;48.740;9.132;2023-06-22T09:37:14;5.60;;;3.47;;
8177;SDS011;4130;48.740;9.132;2023-06-22T09:39:40;4.35;;;3.20;;
8177;SDS011;4130;48.740;9.132;2023-06-22T09:42:07;4.10;;;3.70;;
8177;SDS011;4130;48.740;9.132;2023-06-22T09:44:34;5.13;;;3.47;;
8177;SDS011;4130;48.740;9.132;2023-06-22T09:47:01;5.45;;;3.40;;
8177;SDS011;4130;48.740;9.132;2023-06-22T09:49:29;4.72;;;3.38;;
8177;SDS011;4130;48.740;9.132;2023-06-22T09:51:57;4.43;;;3.30;;
8177;SDS011;4130;48.740;9.132;2023-06-22T09:54:23;7.35;;;3.60;;
8177;SDS011;4130;48.740;9.132;2023-06-22T09:56:50;3.45;;;2.97;;
8177;SDS011;4130;48.740;9.132;2023-06-22T09:59:17;5.80;;;3.25;;
8177;SDS011;4130;48.740;9.132;2023-06-22T10:01:44;4.72;;;3.45;;
8177;SDS011;4130;48.740;9.132;2023-06-22T10:04:10;3.85;;;3.13;;
8177;SDS011;4130;48.740;9.132;2023-06-22T10:06:38;5.55;;;3.50;;
8177;SDS011;4130;48.740;9.132;2023-06-22T10:09:05;4.60;;;3.22;;
8177;SDS011;4130;48.740;9.132;2023-06-22T10:11:32;3.05;;;2.75;;
8177;SDS011;4130;48.740;9.132;2023-06-22T10:14:00;4.45;;;3.45;;
8177;SDS011;4130;48.740;9.132;2023-06-22T10:16:30;4.85;;;3.22;;
8177;SDS011;4130;48.740;9.132;2023-06-22T10:18:57;4.35;;;3.17;;
8177;SDS011;4130;48.740;9.132;2023-06-22T10:21:24;4.93;;;3.17;;
8177;SDS011;4130;48.740;9.132;2023-06-22T10:23:53;3.85;;;3.03;;
8177;SDS011;4130;48.740;9.132;2023-06-22T10:26:20;5.00;;;3.38;;
8177;SDS011;4130;48.740;9.132;2023-06-22T10:28:46;3.40;;;3.03;;
8177;SDS011;4130;48.740;9.132;2023-06-22T10:31:13;5.50;;;3.00;;
8177;SDS011;4130;48.740;9.132;2023-06-22T10:33:41;5.78;;;3.42;;
8177;SDS011;4130;48.740;9.132;2023-06-22T10:36:09;3.75;;;3.00;;
8177;SDS011;4130;48.740;9.132;2023-06-22T10:38:36;4.10;;;3.17;;
8177;SDS011;4130;48.740;9.132;2023-06-22T10:41:04;7.45;;;3.45;;
8177;SDS011;4130;48.740;9.132;2023-06-22T10:43:31;3.83;;;2.92;;
8177;SDS011;4130;48.740;9.132;2023-06-22T10:45:58;4.28;;;3.33;;
8177;SDS011;4130;48.740;9.132;2023-06-22T10:48:24;4.60;;;3.15;;
8177;SDS011;4130;48.740;9.132;2023-06-22T10:50:51;3.38;;;3.00;;
8177;SDS011;4130;48.740;9.132;2023-06-22T10:53:19;3.88;;;2.90;;
8177;SDS011;4130;48.740;9.132;2023-06-22T10:55:46;5.53;;;3.80;;
8177;SDS011;4130;48.740;9.132;2023-06-22T10:58:14;4.45;;;3.40;;
8177;SDS011;4130;48.740;9.132;2023-06-22T11:00:41;5.60;;;3.35;;
8177;SDS011;4130;48.740;9.132;2023-06-22T11:03:08;5.63;;;3.58;;
8177;SDS011;4130;48.740;9.132;2023-06-22T11:05:34;3.28;;;2.90;;
8177;SDS011;4130;48.740;9.132;2023-06-22T11:08:01;5.45;;;3.35;;
8177;SDS011;4130;48.740;9.132;2023-06-22T11:10:28;4.57;;;3.13;;
8177;SDS011;4130;48.740;9.132;2023-06-22T11:12:55;6.60;;;3.50;;
8177;SDS011;4130;48.740;9.132;2023-06-22T11:15:24;5.68;;;3.22;;
8177;SDS011;4130;48.740;9.132;2023-06-22T11:17:51;6.22;;;3.05;;
8177;SDS011;4130;48.740;9.132;2023-06-22T11:20:17;3.70;;;3.08;;
8177;SDS011;4130;48.740;9.132;2023-06-22T11:22:45;7.25;;;3.50;;
8177;SDS011;4130;48.740;9.132;2023-06-22T11:25:12;6.22;;;3.60;;
8177;SDS011;4130;48.740;9.132;2023-06-22T11:27:39;4.45;;;3.10;;
8177;SDS011;4130;48.740;9.132;2023-06-22T11:30:06;8.52;;;3.33;;
8177;SDS011;4130;48.740;9.132;2023-06-22T11:32:35;3.83;;;3.30;;
8177;SDS011;4130;48.740;9.132;2023-06-22T11:35:03;5.15;;;3.60;;
8177;SDS011;4130;48.740;9.132;2023-06-22T11:37:30;4.38;;;3.35;;
8177;SDS011;4130;48.740;9.132;2023-06-22T11:39:57;4.15;;;3.50;;
8177;SDS011;4130;48.740;9.132;2023-06-22T11:42:24;5.50;;;3.17;;
8177;SDS011;4130;48.740;9.132;2023-06-22T11:44:51;4.55;;;3.33;;
8177;SDS011;4130;48.740;9.132;2023-06-22T11:47:18;4.88;;;3.22;;
8177;SDS011;4130;48.740;9.132;2023-06-22T11:49:46;8.07;;;3.60;;
8177;SDS011;4130;48.740;9.132;2023-06-22T11:52:13;4.53;;;3.10;;
8177;SDS011;4130;48.740;9.132;2023-06-22T11:54:40;3.97;;;3.42;;
8177;SDS011;4130;48.740;9.132;2023-06-22T11:57:06;5.43;;;3.78;;
8177;SDS011;4130;48.740;9.132;2023-06-22T11:59:33;4.10;;;3.67;;
8177;SDS011;4130;48.740;9.132;2023-06-22T12:02:00;4.93;;;3.55;;
8177;SDS011;4130;48.740;9.132;2023-06-22T12:04:28;5.10;;;4.05;;
8177;SDS011;4130;48.740;9.132;2023-06-22T12:06:56;7.38;;;3.67;;
8177;SDS011;4130;48.740;9.132;2023-06-22T12:09:23;4.18;;;3.10;;
8177;SDS011;4130;48.740;9.132;2023-06-22T12:11:50;5.00;;;3.38;;
8177;SDS011;4130;48.740;9.132;2023-06-22T12:14:17;4.22;;;3.50;;
8177;SDS011;4130;48.740;9.132;2023-06-22T12:16:43;7.18;;;3.85;;
8177;SDS011;4130;48.740;9.132;2023-06-22T12:19:10;5.07;;;3.38;;
8177;SDS011;4130;48.740;9.132;2023-06-22T12:21:37;4.20;;;3.60;;
8177;SDS011;4130;48.740;9.132;2023-06-22T12:24:07;5.10;;;3.67;;
8177;SDS011;4130;48.740;9.132;2023-06-22T12:26:33;6.80;;;3.67;;
8177;SDS011;4130;48.740;9.132;2023-06-22T12:29:00;7.25;;;3.85;;
8177;SDS011;4130;48.740;9.132;2023-06-22T12:31:27;6.03;;;3.72;;
8177;SDS011;4130;48.740;9.132;2023-06-22T12:33:54;4.60;;;3.78;;
8177;SDS011;4130;48.740;9.132;2023-06-22T12:36:20;5.93;;;3.75;;
8177;SDS011;4130;48.740;9.132;2023-06-22T12:38:47;3.85;;;3.53;;
8177;SDS011;4130;48.740;9.132;2023-06-22T12:41:15;5.15;;;3.75;;
8177;SDS011;4130;48.740;9.132;2023-06-22T12:43:42;6.70;;;3.22;;
8177;SDS011;4130;48.740;9.132;2023-06-22T12:46:08;5.50;;;3.40;;
8177;SDS011;4130;48.740;9.132;2023-06-22T12:48:35;5.82;;;3.58;;
8177;SDS011;4130;48.740;9.132;2023-06-22T12:51:06;5.03;;;3.63;;
8177;SDS011;4130;48.740;9.132;2023-06-22T12:53:34;5.07;;;3.45;;
8177;SDS011;4130;48.740;9.132;2023-06-22T12:56:01;6.72;;;3.78;;
8177;SDS011;4130;48.740;9.132;2023-06-22T12:58:29;8.10;;;3.88;;
8177;SDS011;4130;48.740;9.132;2023-06-22T13:00:55;8.40;;;4.05;;
8177;SDS011;4130;48.740;9.132;2023-06-22T13:03:22;4.15;;;3.50;;
8177;SDS011;4130;48.740;9.132;2023-06-22T13:05:51;6.90;;;3.88;;
8177;SDS011;4130;48.740;9.132;2023-06-22T13:08:18;4.47;;;3.95;;
8177;SDS011;4130;48.740;9.132;2023-06-22T13:10:45;7.03;;;4.28;;
8177;SDS011;4130;48.740;9.132;2023-06-22T13:13:11;7.22;;;4.00;;
8177;SDS011;4130;48.740;9.132;2023-06-22T13:15:49;5.70;;;4.18;;
8177;SDS011;4130;48.740;9.132;2023-06-22T13:18:15;10.15;;;4.60;;
8177;SDS011;4130;48.740;9.132;2023-06-22T13:20:42;5.22;;;3.75;;
8177;SDS011;4130;48.740;9.132;2023-06-22T13:23:10;6.85;;;3.63;;
8177;SDS011;4130;48.740;9.132;2023-06-22T13:25:37;7.80;;;4.50;;
8177;SDS011;4130;48.740;9.132;2023-06-22T13:28:05;5.40;;;3.35;;
8177;SDS011;4130;48.740;9.132;2023-06-22T13:30:31;7.07;;;3.30;;
8177;SDS011;4130;48.740;9.132;2023-06-22T13:32:59;6.88;;;3.58;;
8177;SDS011;4130;48.740;9.132;2023-06-22T13:35:26;8.00;;;3.50;;
8177;SDS011;4130;48.740;9.132;2023-06-22T13:37:53;7.93;;;3.55;;
8177;SDS011;4130;48.740;9.132;2023-06-22T13:40:20;7.40;;;3.75;;
8177;SDS011;4130;48.740;9.132;2023-06-22T13:42:46;7.15;;;3.63;;
8177;SDS011;4130;48.740;9.132;2023-06-22T13:45:13;36.25;;;8.40;;
8177;SDS011;4130;48.740;9.132;2023-06-22T13:47:42;5.82;;;3.92;;
8177;SDS011;4130;48.740;9.132;2023-06-22T13:50:10;6.25;;;4.18;;
8177;SDS011;4130;48.740;9.132;2023-06-22T13:52:37;4.78;;;3.50;;
8177;SDS011;4130;48.740;9.132;2023-06-22T13:55:05;5.30;;;3.30;;
8177;SDS011;4130;48.740;9.132;2023-06-22T13:57:33;5.45;;;3.28;;
8177;SDS011;4130;48.740;9.132;2023-06-22T14:00:00;8.00;;;3.80;;
8177;SDS011;4130;48.740;9.132;2023-06-22T14:02:28;7.35;;;3.40;;
8177;SDS011;4130;48.740;9.132;2023-06-22T14:04:55;5.53;;;3.67;;
8177;SDS011;4130;48.740;9.132;2023-06-22T14:07:24;5.50;;;3.63;;
8177;SDS011;4130;48.740;9.132;2023-06-22T14:09:51;3.17;;;2.88;;
8177;SDS011;4130;48.740;9.132;2023-06-22T14:12:18;15.23;;;3.80;;
8177;SDS011;4130;48.740;9.132;2023-06-22T14:14:45;7.03;;;3.30;;
8177;SDS011;4130;48.740;9.132;2023-06-22T14:17:11;6.38;;;3.38;;
8177;SDS011;4130;48.740;9.132;2023-06-22T14:19:38;6.40;;;3.30;;
8177;SDS011;4130;48.740;9.132;2023-06-22T14:22:05;6.47;;;3.30;;
8177;SDS011;4130;48.740;9.132;2023-06-22T14:24:33;5.18;;;3.08;;
8177;SDS011;4130;48.740;9.132;2023-06-22T14:27:00;6.60;;;3.08;;
8177;SDS011;4130;48.740;9.132;2023-06-22T14:29:28;3.88;;;2.55;;
8177;SDS011;4130;48.740;9.132;2023-06-22T14:31:55;5.00;;;2.83;;
8177;SDS011;4130;48.740;9.132;2023-06-22T14:34:22;6.53;;;3.00;;
8177;SDS011;4130;48.740;9.132;2023-06-22T14:36:49;4.70;;;2.58;;
8177;SDS011;4130;48.740;9.132;2023-06-22T14:39:16;5.85;;;2.50;;
8177;SDS011;4130;48.740;9.132;2023-06-22T14:41:44;7.45;;;3.10;;
8177;SDS011;4130;48.740;9.132;2023-06-22T14:44:11;4.18;;;2.47;;
8177;SDS011;4130;48.740;9.132;2023-06-22T14:46:38;7.28;;;2.50;;
8177;SDS011;4130;48.740;9.132;2023-06-22T14:49:05;8.25;;;2.63;;
8177;SDS011;4130;48.740;9.132;2023-06-22T14:51:31;4.15;;;2.22;;
8177;SDS011;4130;48.740;9.132;2023-06-22T14:53:58;2.97;;;2.10;;
8177;SDS011;4130;48.740;9.132;2023-06-22T14:56:25;4.38;;;2.50;;
8177;SDS011;4130;48.740;9.132;2023-06-22T14:58:53;5.28;;;2.53;;
8177;SDS011;4130;48.740;9.132;2023-06-22T15:01:20;4.90;;;2.40;;
8177;SDS011;4130;48.740;9.132;2023-06-22T15:03:46;3.80;;;1.90;;
8177;SDS011;4130;48.740;9.132;2023-06-22T15:06:13;6.28;;;2.10;;
8177;SDS011;4130;48.740;9.132;2023-06-22T15:08:41;5.72;;;2.30;;
8177;SDS011;4130;48.740;9.132;2023-06-22T15:11:07;6.53;;;2.50;;
8177;SDS011;4130;48.740;9.132;2023-06-22T15:13:37;5.82;;;2.95;;
8177;SDS011;4130;48.740;9.132;2023-06-22T15:16:06;7.30;;;2.20;;